First Coast — WCR9075 — position and weather

sailwx.info

Track history (hours):
 
Tides and Currents Weather Stations Pressure Air Temp Water Temp Dewpoint Dewpoint Depression Visibility Wind Speed Wind Dir Waves Ship Positions

First Coast

Owner: DANN MARINE TOWING L C, CHESAPEAKE CITY, MD. More information available from US FCC via Universal Licensing System and Coast Guard Vessel Documentation Center.

Last reported at 2016-Jul-26 11:33 UTC. Time now 2016-Jul-26 14:10 UTC.
Position N 39°48' W 075°25'.

Length 27 m; draft 4 m.

Type: Tug. MMSI: 367024280.

Date/timePositionNaut miles runAvg speedWind from/ knotsBaromVisibWave heightAir tempDewpointWater temp
2016-Jul-26 11:33N 39°48' W 075°25'0 0.0
2016-Jul-26 10:33N 39°48' W 075°25'0 0.0
2016-Jul-26 09:32N 39°48' W 075°25'0 0.0
2016-Jul-26 07:20N 39°48' W 075°25'0 0.0
2016-Jul-26 06:33N 39°48' W 075°25'0 0.0
2016-Jul-26 05:32N 39°48' W 075°25'0 0.0
2016-Jul-26 04:28N 39°48' W 075°25'0 0.0
2016-Jul-26 03:33N 39°48' W 075°25'0 0.0
2016-Jul-26 02:34N 39°48' W 075°25'0 0.0
2016-Jul-25 23:10N 39°48' W 075°25'0 0.0
2016-Jul-25 22:30N 39°48' W 075°25'0 0.0
2016-Jul-25 21:15N 39°48' W 075°25'0 0.0
2016-Jul-25 20:33N 39°48' W 075°25'0 0.0
2016-Jul-25 19:33N 39°48' W 075°25'0 0.0
2016-Jul-25 18:30N 39°48' W 075°25'0 0.0
2016-Jul-25 17:24N 39°48' W 075°25'0 0.0
2016-Jul-25 16:33N 39°48' W 075°25'0 0.0
2016-Jul-25 15:32N 39°48' W 075°25'0 0.0
2016-Jul-25 14:32N 39°48' W 075°25'0 0.0
2016-Jul-25 13:22N 39°48' W 075°25'0 0.0
2016-Jul-25 12:27N 39°48' W 075°25'0 0.0
2016-Jul-25 11:33N 39°48' W 075°25'0 0.0
2016-Jul-25 10:33N 39°48' W 075°25'0 0.0
2016-Jul-25 09:33N 39°48' W 075°25'0 0.0
2016-Jul-25 08:33N 39°48' W 075°25'0 0.0
2016-Jul-25 07:33N 39°48' W 075°25'0 0.0
2016-Jul-25 06:32N 39°48' W 075°25'0 0.0
2016-Jul-25 03:08N 39°48' W 075°25'0 0.0
2016-Jul-25 02:33N 39°48' W 075°25'0 0.0
2016-Jul-25 01:26N 39°48' W 075°25'4 4.3
2016-Jul-25 00:33N 39°46' W 075°29'5 5.4
2016-Jul-24 23:33N 39°41' W 075°31'5 5.2
2016-Jul-24 22:33N 39°36' W 075°34'4 3.9
2016-Jul-24 21:34N 39°33' W 075°38'5 4.8
2016-Jul-24 20:34N 39°32' W 075°44'5 5.1
2016-Jul-24 19:33N 39°32' W 075°51'  
2016-Jul-22 12:33N 39°32' W 075°49'7 6.9
2016-Jul-22 11:33N 39°33' W 075°40'6 5.8
2016-Jul-22 10:33N 39°36' W 075°34'10 9.8
2016-Jul-22 09:33N 39°45' W 075°29'4 4.1
2016-Jul-22 08:33N 39°48' W 075°25'0 0.0
2016-Jul-22 07:33N 39°48' W 075°25'0 0.0
2016-Jul-22 04:15N 39°48' W 075°25'0 0.0
2016-Jul-22 03:33N 39°48' W 075°25'0 0.0
2016-Jul-22 02:17N 39°48' W 075°25'0 0.0
2016-Jul-22 01:33N 39°48' W 075°25'0 0.0
2016-Jul-22 00:33N 39°48' W 075°25'0 0.0
2016-Jul-21 23:33N 39°48' W 075°25'0 0.0
2016-Jul-21 22:33N 39°48' W 075°25'0 0.0
2016-Jul-21 21:33N 39°48' W 075°25'0 0.0
2016-Jul-21 20:33N 39°48' W 075°25'0 0.0
2016-Jul-21 19:33N 39°48' W 075°25'0 0.0
2016-Jul-21 18:32N 39°48' W 075°25'0 0.0
2016-Jul-21 17:24N 39°48' W 075°25'0 0.0
2016-Jul-21 16:26N 39°48' W 075°25'4 4.5
2016-Jul-21 15:32N 39°51' W 075°21'8 8.0
2016-Jul-21 14:33N 39°54' W 075°12'2 1.8
2016-Jul-21 13:33N 39°53' W 075°09'3 2.9
2016-Jul-21 12:33N 39°56' W 075°08'2 1.9
2016-Jul-21 11:33N 39°54' W 075°09'0 0.0
2016-Jul-21 10:33N 39°54' W 075°09'0 0.0
2016-Jul-21 09:33N 39°54' W 075°09'0 0.0
2016-Jul-21 08:33N 39°54' W 075°09'0 0.0
2016-Jul-21 07:33N 39°54' W 075°09'0 0.0
2016-Jul-21 06:33N 39°54' W 075°09'0 0.0
2016-Jul-21 05:33N 39°54' W 075°09'0 0.0
2016-Jul-21 04:33N 39°54' W 075°09'0 0.0
2016-Jul-21 03:33N 39°54' W 075°09'0 0.0
2016-Jul-21 02:33N 39°54' W 075°09'0 0.0
2016-Jul-21 01:34N 39°54' W 075°09'0 0.0
2016-Jul-21 00:33N 39°54' W 075°09'0 0.0
2016-Jul-20 23:33N 39°54' W 075°09'0 0.0
2016-Jul-20 22:30N 39°54' W 075°09'0 0.0
2016-Jul-20 21:33N 39°54' W 075°09'0 0.0
2016-Jul-20 20:33N 39°54' W 075°09'0 0.0
2016-Jul-20 19:33N 39°54' W 075°09'0 0.0
2016-Jul-20 18:32N 39°54' W 075°09'0 0.0
2016-Jul-20 17:33N 39°54' W 075°09'0 0.0
2016-Jul-20 16:32N 39°54' W 075°09'0 0.0
2016-Jul-20 15:31N 39°54' W 075°09'0 0.0
2016-Jul-20 14:32N 39°54' W 075°09'0 0.0
2016-Jul-20 13:33N 39°54' W 075°09'0 0.0
2016-Jul-20 12:33N 39°54' W 075°09'0 0.0
2016-Jul-20 11:31N 39°54' W 075°09'0 0.0
2016-Jul-20 10:25N 39°54' W 075°09'0 0.0
2016-Jul-20 09:23N 39°54' W 075°09'0 0.0
2016-Jul-20 08:33N 39°54' W 075°09'0 0.0
2016-Jul-20 07:33N 39°54' W 075°09'0 0.0
2016-Jul-20 06:34N 39°54' W 075°09'0 0.0
2016-Jul-20 05:33N 39°54' W 075°09'0 0.0
2016-Jul-20 04:33N 39°54' W 075°09'0 0.0
2016-Jul-20 03:33N 39°54' W 075°09'0 0.0
2016-Jul-20 02:32N 39°54' W 075°09'11 9.0
2016-Jul-20 01:18N 39°50' W 075°22'3 3.8
2016-Jul-20 00:33N 39°48' W 075°25'5 5.3
2016-Jul-19 23:31N 39°44' W 075°30'5 5.7
2016-Jul-19 22:33N 39°39' W 075°33'5 4.8
2016-Jul-19 21:33N 39°34' W 075°33'7 7.0
2016-Jul-19 20:33N 39°33' W 075°42'6 6.4
2016-Jul-19 19:33N 39°32' W 075°50'  
2016-Jul-17 13:16N 39°32' W 075°50'5 7.4
2016-Jul-17 12:33N 39°33' W 075°43'7 7.0
2016-Jul-17 11:33N 39°34' W 075°34'7 6.6
2016-Jul-17 10:34N 39°40' W 075°32'9 9.4
2016-Jul-17 09:33N 39°48' W 075°26'1 0.6
2016-Jul-17 08:33N 39°48' W 075°25'0 0.0
2016-Jul-17 07:29N 39°48' W 075°25'0 0.0
2016-Jul-17 06:33N 39°48' W 075°25'0 0.0
2016-Jul-17 04:33N 39°48' W 075°25'0 0.0
2016-Jul-17 03:33N 39°48' W 075°25'0 0.0
2016-Jul-17 02:33N 39°48' W 075°25'0 0.0
2016-Jul-17 01:33N 39°48' W 075°25'0 0.0
2016-Jul-17 00:33N 39°48' W 075°25'0 0.0
2016-Jul-16 23:07N 39°48' W 075°25'2 2.7
2016-Jul-16 22:30N 39°47' W 075°27'1010.5
2016-Jul-16 21:33N 39°39' W 075°33'8 8.2
2016-Jul-16 20:34N 39°33' W 075°40'7 7.0
2016-Jul-16 19:33N 39°32' W 075°50'0 0.0
2016-Jul-16 18:33N 39°32' W 075°50'0 0.0
2016-Jul-16 17:33N 39°32' W 075°50'0 0.0
2016-Jul-16 16:33N 39°32' W 075°50'0 0.0
2016-Jul-16 15:33N 39°32' W 075°50'0 0.0
2016-Jul-16 14:34N 39°32' W 075°50'0 0.0
2016-Jul-16 13:07N 39°32' W 075°50'0 0.6
2016-Jul-16 12:33N 39°32' W 075°50'8 8.1
2016-Jul-16 11:34N 39°28' W 075°59'  
Track history (hours):
 
Tides and Currents Weather Stations Pressure Air Temp Water Temp Dewpoint Dewpoint Depression Visibility Wind Speed Wind Dir Waves Ship Positions

First Coast

Owner: DANN MARINE TOWING L C, CHESAPEAKE CITY, MD. More information available from US FCC via Universal Licensing System and Coast Guard Vessel Documentation Center.

Last reported at 2016-Jul-26 11:33 UTC. Time now 2016-Jul-26 14:10 UTC.
Position N 39°48' W 075°25'.

Length 27 m; draft 4 m.

Type: Tug. MMSI: 367024280.

Date/timePositionNaut miles runAvg speedWind from/ knotsBaromVisibWave heightAir tempDewpointWater temp
2016-Jul-26 11:33N 39°48' W 075°25'0 0.0
2016-Jul-26 10:33N 39°48' W 075°25'0 0.0
2016-Jul-26 09:32N 39°48' W 075°25'0 0.0
2016-Jul-26 07:20N 39°48' W 075°25'0 0.0
2016-Jul-26 06:33N 39°48' W 075°25'0 0.0
2016-Jul-26 05:32N 39°48' W 075°25'0 0.0
2016-Jul-26 04:28N 39°48' W 075°25'0 0.0
2016-Jul-26 03:33N 39°48' W 075°25'0 0.0
2016-Jul-26 02:34N 39°48' W 075°25'0 0.0
2016-Jul-25 23:10N 39°48' W 075°25'0 0.0
2016-Jul-25 22:30N 39°48' W 075°25'0 0.0
2016-Jul-25 21:15N 39°48' W 075°25'0 0.0
2016-Jul-25 20:33N 39°48' W 075°25'0 0.0
2016-Jul-25 19:33N 39°48' W 075°25'0 0.0
2016-Jul-25 18:30N 39°48' W 075°25'0 0.0
2016-Jul-25 17:24N 39°48' W 075°25'0 0.0
2016-Jul-25 16:33N 39°48' W 075°25'0 0.0
2016-Jul-25 15:32N 39°48' W 075°25'0 0.0
2016-Jul-25 14:32N 39°48' W 075°25'0 0.0
2016-Jul-25 13:22N 39°48' W 075°25'0 0.0
2016-Jul-25 12:27N 39°48' W 075°25'0 0.0
2016-Jul-25 11:33N 39°48' W 075°25'0 0.0
2016-Jul-25 10:33N 39°48' W 075°25'0 0.0
2016-Jul-25 09:33N 39°48' W 075°25'0 0.0
2016-Jul-25 08:33N 39°48' W 075°25'0 0.0
2016-Jul-25 07:33N 39°48' W 075°25'0 0.0
2016-Jul-25 06:32N 39°48' W 075°25'0 0.0
2016-Jul-25 03:08N 39°48' W 075°25'0 0.0
2016-Jul-25 02:33N 39°48' W 075°25'0 0.0
2016-Jul-25 01:26N 39°48' W 075°25'4 4.3
2016-Jul-25 00:33N 39°46' W 075°29'5 5.4
2016-Jul-24 23:33N 39°41' W 075°31'5 5.2
2016-Jul-24 22:33N 39°36' W 075°34'4 3.9
2016-Jul-24 21:34N 39°33' W 075°38'5 4.8
2016-Jul-24 20:34N 39°32' W 075°44'5 5.1
2016-Jul-24 19:33N 39°32' W 075°51'  
2016-Jul-22 12:33N 39°32' W 075°49'7 6.9
2016-Jul-22 11:33N 39°33' W 075°40'6 5.8
2016-Jul-22 10:33N 39°36' W 075°34'10 9.8
2016-Jul-22 09:33N 39°45' W 075°29'4 4.1
2016-Jul-22 08:33N 39°48' W 075°25'0 0.0
2016-Jul-22 07:33N 39°48' W 075°25'0 0.0
2016-Jul-22 04:15N 39°48' W 075°25'0 0.0
2016-Jul-22 03:33N 39°48' W 075°25'0 0.0
2016-Jul-22 02:17N 39°48' W 075°25'0 0.0
2016-Jul-22 01:33N 39°48' W 075°25'0 0.0
2016-Jul-22 00:33N 39°48' W 075°25'0 0.0
2016-Jul-21 23:33N 39°48' W 075°25'0 0.0
2016-Jul-21 22:33N 39°48' W 075°25'0 0.0
2016-Jul-21 21:33N 39°48' W 075°25'0 0.0
2016-Jul-21 20:33N 39°48' W 075°25'0 0.0
2016-Jul-21 19:33N 39°48' W 075°25'0 0.0
2016-Jul-21 18:32N 39°48' W 075°25'0 0.0
2016-Jul-21 17:24N 39°48' W 075°25'0 0.0
2016-Jul-21 16:26N 39°48' W 075°25'4 4.5
2016-Jul-21 15:32N 39°51' W 075°21'8 8.0
2016-Jul-21 14:33N 39°54' W 075°12'2 1.8
2016-Jul-21 13:33N 39°53' W 075°09'3 2.9
2016-Jul-21 12:33N 39°56' W 075°08'2 1.9
2016-Jul-21 11:33N 39°54' W 075°09'0 0.0
2016-Jul-21 10:33N 39°54' W 075°09'0 0.0
2016-Jul-21 09:33N 39°54' W 075°09'0 0.0
2016-Jul-21 08:33N 39°54' W 075°09'0 0.0
2016-Jul-21 07:33N 39°54' W 075°09'0 0.0
2016-Jul-21 06:33N 39°54' W 075°09'0 0.0
2016-Jul-21 05:33N 39°54' W 075°09'0 0.0
2016-Jul-21 04:33N 39°54' W 075°09'0 0.0
2016-Jul-21 03:33N 39°54' W 075°09'0 0.0
2016-Jul-21 02:33N 39°54' W 075°09'0 0.0
2016-Jul-21 01:34N 39°54' W 075°09'0 0.0
2016-Jul-21 00:33N 39°54' W 075°09'0 0.0
2016-Jul-20 23:33N 39°54' W 075°09'0 0.0
2016-Jul-20 22:30N 39°54' W 075°09'0 0.0
2016-Jul-20 21:33N 39°54' W 075°09'0 0.0
2016-Jul-20 20:33N 39°54' W 075°09'0 0.0
2016-Jul-20 19:33N 39°54' W 075°09'0 0.0
2016-Jul-20 18:32N 39°54' W 075°09'0 0.0
2016-Jul-20 17:33N 39°54' W 075°09'0 0.0
2016-Jul-20 16:32N 39°54' W 075°09'0 0.0
2016-Jul-20 15:31N 39°54' W 075°09'0 0.0
2016-Jul-20 14:32N 39°54' W 075°09'0 0.0
2016-Jul-20 13:33N 39°54' W 075°09'0 0.0
2016-Jul-20 12:33N 39°54' W 075°09'0 0.0
2016-Jul-20 11:31N 39°54' W 075°09'0 0.0
2016-Jul-20 10:25N 39°54' W 075°09'0 0.0
2016-Jul-20 09:23N 39°54' W 075°09'0 0.0
2016-Jul-20 08:33N 39°54' W 075°09'0 0.0
2016-Jul-20 07:33N 39°54' W 075°09'0 0.0
2016-Jul-20 06:34N 39°54' W 075°09'0 0.0
2016-Jul-20 05:33N 39°54' W 075°09'0 0.0
2016-Jul-20 04:33N 39°54' W 075°09'0 0.0
2016-Jul-20 03:33N 39°54' W 075°09'0 0.0
2016-Jul-20 02:32N 39°54' W 075°09'11 9.0
2016-Jul-20 01:18N 39°50' W 075°22'3 3.8
2016-Jul-20 00:33N 39°48' W 075°25'5 5.3
2016-Jul-19 23:31N 39°44' W 075°30'5 5.7
2016-Jul-19 22:33N 39°39' W 075°33'5 4.8
2016-Jul-19 21:33N 39°34' W 075°33'7 7.0
2016-Jul-19 20:33N 39°33' W 075°42'6 6.4
2016-Jul-19 19:33N 39°32' W 075°50'  
2016-Jul-17 13:16N 39°32' W 075°50'5 7.4
2016-Jul-17 12:33N 39°33' W 075°43'7 7.0
2016-Jul-17 11:33N 39°34' W 075°34'7 6.6
2016-Jul-17 10:34N 39°40' W 075°32'9 9.4
2016-Jul-17 09:33N 39°48' W 075°26'1 0.6
2016-Jul-17 08:33N 39°48' W 075°25'0 0.0
2016-Jul-17 07:29N 39°48' W 075°25'0 0.0
2016-Jul-17 06:33N 39°48' W 075°25'0 0.0
2016-Jul-17 04:33N 39°48' W 075°25'0 0.0
2016-Jul-17 03:33N 39°48' W 075°25'0 0.0
2016-Jul-17 02:33N 39°48' W 075°25'0 0.0
2016-Jul-17 01:33N 39°48' W 075°25'0 0.0
2016-Jul-17 00:33N 39°48' W 075°25'0 0.0
2016-Jul-16 23:07N 39°48' W 075°25'2 2.7
2016-Jul-16 22:30N 39°47' W 075°27'1010.5
2016-Jul-16 21:33N 39°39' W 075°33'8 8.2
2016-Jul-16 20:34N 39°33' W 075°40'7 7.0
2016-Jul-16 19:33N 39°32' W 075°50'0 0.0
2016-Jul-16 18:33N 39°32' W 075°50'0 0.0
2016-Jul-16 17:33N 39°32' W 075°50'0 0.0
2016-Jul-16 16:33N 39°32' W 075°50'0 0.0
2016-Jul-16 15:33N 39°32' W 075°50'0 0.0
2016-Jul-16 14:34N 39°32' W 075°50'0 0.0
2016-Jul-16 13:07N 39°32' W 075°50'0 0.6
2016-Jul-16 12:33N 39°32' W 075°50'8 8.1
2016-Jul-16 11:34N 39°28' W 075°59'  

Dump ship's entire track history